createdAt,value
2017-09-14T00:00:45.207Z,22.51
2017-09-14T00:03:12.680Z,22.50
2017-09-14T00:05:40.159Z,22.51
2017-09-14T00:08:07.728Z,22.50
2017-09-14T00:10:35.175Z,22.50
2017-09-14T00:13:02.600Z,22.51
2017-09-14T00:15:30.055Z,22.50
2017-09-14T00:17:57.505Z,22.50
2017-09-14T00:20:24.970Z,22.50
2017-09-14T00:22:52.387Z,22.50
2017-09-14T00:25:19.839Z,22.50
2017-09-14T00:27:47.277Z,22.49
2017-09-14T00:30:14.680Z,22.50
2017-09-14T00:32:42.123Z,22.49
2017-09-14T00:35:09.599Z,22.50
2017-09-14T00:37:37.018Z,22.50
2017-09-14T00:40:05.280Z,22.50
2017-09-14T00:42:32.695Z,22.49
2017-09-14T00:45:00.136Z,22.50
2017-09-14T00:47:27.677Z,22.49
2017-09-14T00:49:55.086Z,22.49
2017-09-14T00:52:22.504Z,22.49
2017-09-14T00:54:49.957Z,22.49
2017-09-14T00:57:17.995Z,22.49
2017-09-14T00:59:45.401Z,22.48
2017-09-14T01:02:12.843Z,22.49
2017-09-14T01:04:40.416Z,22.48
2017-09-14T01:07:07.833Z,22.47
2017-09-14T01:09:35.275Z,22.48
2017-09-14T01:12:02.696Z,22.48
2017-09-14T01:14:30.108Z,22.49
2017-09-14T01:16:57.539Z,22.48
2017-09-14T01:19:24.952Z,22.48
2017-09-14T01:21:52.406Z,22.49
2017-09-14T01:24:19.844Z,22.48
2017-09-14T01:26:47.273Z,22.48
2017-09-14T01:29:14.690Z,22.48
2017-09-14T01:31:42.128Z,22.48
2017-09-14T01:34:09.550Z,22.48
2017-09-14T01:36:37.014Z,22.48
2017-09-14T01:39:04.438Z,22.48
2017-09-14T01:41:31.865Z,22.48
2017-09-14T01:43:59.278Z,22.48
2017-09-14T01:46:27.267Z,22.48
2017-09-14T01:48:54.685Z,22.47
2017-09-14T01:51:22.109Z,22.47
2017-09-14T01:53:49.555Z,22.48
2017-09-14T01:56:16.962Z,22.47
2017-09-14T01:58:44.399Z,22.47
2017-09-14T02:01:11.935Z,22.47
2017-09-14T02:03:39.341Z,22.47
2017-09-14T02:06:06.757Z,22.46
2017-09-14T02:08:34.227Z,22.47
2017-09-14T02:11:01.727Z,22.47
2017-09-14T02:13:29.306Z,22.47
2017-09-14T02:15:56.736Z,22.46
2017-09-14T02:18:24.650Z,22.47
2017-09-14T02:20:52.075Z,22.47
2017-09-14T02:23:19.517Z,22.47
2017-09-14T02:25:46.960Z,22.47
2017-09-14T02:28:14.378Z,22.46
2017-09-14T02:30:41.854Z,22.46
2017-09-14T02:33:09.268Z,22.46
2017-09-14T02:35:36.698Z,22.46
2017-09-14T02:38:04.204Z,22.46
2017-09-14T02:40:31.617Z,22.46
2017-09-14T02:42:59.031Z,22.46
2017-09-14T02:45:26.495Z,22.45
2017-09-14T02:47:53.913Z,22.46
2017-09-14T02:50:21.330Z,22.46
2017-09-14T02:52:48.770Z,22.46
2017-09-14T02:55:16.191Z,22.46
2017-09-14T02:57:43.600Z,22.46
2017-09-14T03:00:11.069Z,22.45
2017-09-14T03:02:38.483Z,22.46
2017-09-14T03:05:05.891Z,22.46
2017-09-14T03:07:33.324Z,22.45
2017-09-14T03:10:00.738Z,22.45
2017-09-14T03:12:28.156Z,22.46
2017-09-14T03:14:55.689Z,22.45
2017-09-14T03:17:23.094Z,22.45
2017-09-14T03:19:50.502Z,22.45
2017-09-14T03:22:17.949Z,22.45
2017-09-14T03:24:45.458Z,22.44
2017-09-14T03:27:12.892Z,22.44
2017-09-14T03:29:40.352Z,22.45
2017-09-14T03:32:07.758Z,22.45
2017-09-14T03:34:35.183Z,22.44
2017-09-14T03:37:02.621Z,22.44
2017-09-14T03:39:30.044Z,22.44
2017-09-14T03:41:57.458Z,22.44
2017-09-14T03:44:24.885Z,22.44
2017-09-14T03:46:52.317Z,22.44
2017-09-14T03:49:19.739Z,22.44
2017-09-14T03:51:47.184Z,22.44
2017-09-14T03:54:14.594Z,22.44
2017-09-14T03:56:42.005Z,22.44
2017-09-14T03:59:09.488Z,22.44
2017-09-14T04:01:36.901Z,22.44
2017-09-14T04:04:05.759Z,22.44
2017-09-14T04:06:33.264Z,22.44
2017-09-14T04:09:00.685Z,22.44
2017-09-14T04:11:28.154Z,22.44
2017-09-14T04:13:55.604Z,22.43
2017-09-14T04:16:23.022Z,22.43
2017-09-14T04:18:50.434Z,22.43
2017-09-14T04:21:17.893Z,22.43
2017-09-14T04:23:45.316Z,22.42
2017-09-14T04:26:12.744Z,22.43
2017-09-14T04:28:40.160Z,22.42
2017-09-14T04:31:07.596Z,22.45
2017-09-14T04:33:34.999Z,22.46
2017-09-14T04:36:02.453Z,22.46
2017-09-14T04:38:29.957Z,22.46
2017-09-14T04:40:57.365Z,22.47
2017-09-14T04:43:24.784Z,22.47
2017-09-14T04:45:52.204Z,22.47
2017-09-14T04:48:19.633Z,22.46
2017-09-14T04:50:47.067Z,22.47
2017-09-14T04:53:14.481Z,22.46
2017-09-14T04:55:41.895Z,22.46
2017-09-14T04:58:09.339Z,22.46
2017-09-14T05:00:36.743Z,22.45
2017-09-14T05:03:04.153Z,22.46
2017-09-14T05:05:31.602Z,22.45
2017-09-14T05:07:59.022Z,22.44
2017-09-14T05:10:26.432Z,22.47
2017-09-14T05:12:53.871Z,22.46
2017-09-14T05:15:21.282Z,22.48
2017-09-14T05:17:48.699Z,22.49
2017-09-14T05:20:16.117Z,22.50
2017-09-14T05:22:43.578Z,22.49
2017-09-14T05:25:11.006Z,22.49
2017-09-14T05:27:38.435Z,22.49
2017-09-14T05:30:05.857Z,22.48
2017-09-14T05:32:33.285Z,22.48
2017-09-14T05:35:00.729Z,22.48
2017-09-14T05:37:28.140Z,22.49
2017-09-14T05:39:55.640Z,22.49
2017-09-14T05:42:23.181Z,22.48
2017-09-14T05:44:50.587Z,22.48
2017-09-14T05:47:17.997Z,22.47
2017-09-14T05:49:45.444Z,22.49
2017-09-14T05:52:12.851Z,22.50
2017-09-14T05:54:40.259Z,22.51
2017-09-14T05:57:07.691Z,22.49
2017-09-14T05:59:35.107Z,22.49
2017-09-14T06:02:02.523Z,22.50
2017-09-14T06:04:29.974Z,22.49
2017-09-14T06:06:57.388Z,22.50
2017-09-14T06:09:24.814Z,22.45
2017-09-14T06:11:52.279Z,22.48
2017-09-14T06:14:19.706Z,22.50
2017-09-14T06:16:47.122Z,22.49
2017-09-14T06:19:14.552Z,22.48
2017-09-14T06:21:41.980Z,22.49
2017-09-14T06:24:09.382Z,22.49
2017-09-14T06:26:36.830Z,22.49
2017-09-14T06:29:04.237Z,22.49
2017-09-14T06:31:31.647Z,22.49
2017-09-14T06:33:59.091Z,22.48
2017-09-14T06:36:26.512Z,22.48
2017-09-14T06:38:53.935Z,22.49
2017-09-14T06:41:21.379Z,22.49
2017-09-14T06:43:48.791Z,22.50
2017-09-14T06:46:16.210Z,22.52
2017-09-14T06:48:43.661Z,22.52
2017-09-14T06:51:11.163Z,22.52
2017-09-14T06:53:38.585Z,22.53
2017-09-14T06:56:06.043Z,22.51
2017-09-14T06:58:33.464Z,22.53
2017-09-14T07:01:00.885Z,22.52
2017-09-14T07:03:28.322Z,22.53
2017-09-14T07:05:55.794Z,22.53
2017-09-14T07:08:23.214Z,22.52
2017-09-14T07:10:50.660Z,22.52
2017-09-14T07:13:18.086Z,22.51
2017-09-14T07:15:45.497Z,22.51
2017-09-14T07:18:12.936Z,22.52
2017-09-14T07:20:40.424Z,22.52
2017-09-14T07:23:07.884Z,22.52
2017-09-14T07:25:35.345Z,22.53
2017-09-14T07:28:02.749Z,22.55
2017-09-14T07:30:30.171Z,22.56
2017-09-14T07:32:57.637Z,22.55
2017-09-14T07:35:25.136Z,22.55
2017-09-14T07:37:52.551Z,22.59
2017-09-14T07:40:19.993Z,22.60
2017-09-14T07:42:47.917Z,22.60
2017-09-14T07:45:15.325Z,22.60
2017-09-14T07:47:42.779Z,22.61
2017-09-14T07:50:10.193Z,22.61
2017-09-14T07:52:37.609Z,22.59
2017-09-14T07:55:05.070Z,22.60
2017-09-14T07:57:32.497Z,22.59
2017-09-14T07:59:59.915Z,22.58
2017-09-14T08:02:27.364Z,22.59
2017-09-14T08:04:54.852Z,22.59
2017-09-14T08:07:22.268Z,22.55
2017-09-14T08:09:49.739Z,22.55
2017-09-14T08:12:17.332Z,22.57
2017-09-14T08:14:44.749Z,22.57
2017-09-14T08:17:12.212Z,22.60
2017-09-14T08:19:39.626Z,22.57
2017-09-14T08:22:07.061Z,22.57
2017-09-14T08:24:34.517Z,22.56
2017-09-14T08:27:01.931Z,22.56
2017-09-14T08:29:29.335Z,22.56
2017-09-14T08:31:56.807Z,22.55
2017-09-14T08:34:24.217Z,22.55
2017-09-14T08:36:51.683Z,22.55
2017-09-14T08:39:19.140Z,22.56
2017-09-14T08:41:46.566Z,22.57
2017-09-14T08:44:13.995Z,22.58
2017-09-14T08:46:41.441Z,22.54
2017-09-14T08:49:08.885Z,22.53
2017-09-14T08:51:36.385Z,22.52
2017-09-14T08:54:03.830Z,22.52
2017-09-14T08:56:31.242Z,22.54
2017-09-14T08:58:58.664Z,22.54
2017-09-14T09:01:26.144Z,22.52
2017-09-14T09:03:53.576Z,22.54
2017-09-14T09:06:20.994Z,22.54
2017-09-14T09:08:48.440Z,22.54
2017-09-14T09:11:15.859Z,22.55
2017-09-14T09:13:43.296Z,22.54
2017-09-14T09:16:10.772Z,22.56
2017-09-14T09:18:38.188Z,22.55
2017-09-14T09:21:05.605Z,22.55
2017-09-14T09:23:33.029Z,22.54
2017-09-14T09:26:00.452Z,22.50
2017-09-14T09:28:28.414Z,22.51
2017-09-14T09:30:55.860Z,22.52
2017-09-14T09:33:23.264Z,22.47
2017-09-14T09:35:50.682Z,22.47
2017-09-14T09:38:18.128Z,22.50
2017-09-14T09:40:45.547Z,22.51
2017-09-14T09:43:12.957Z,22.49
2017-09-14T09:45:40.438Z,22.51
2017-09-14T09:48:07.862Z,22.52
2017-09-14T09:50:35.281Z,22.52
2017-09-14T09:53:02.731Z,22.52
2017-09-14T09:55:30.187Z,22.52
2017-09-14T09:57:57.610Z,22.51
2017-09-14T10:00:25.075Z,22.51
2017-09-14T10:02:52.498Z,22.53
2017-09-14T10:05:19.918Z,22.51
2017-09-14T10:07:47.372Z,22.51
2017-09-14T10:10:14.826Z,22.52
2017-09-14T10:12:42.250Z,22.55
2017-09-14T10:15:09.694Z,22.54
2017-09-14T10:17:37.124Z,22.57
2017-09-14T10:20:04.557Z,22.56
2017-09-14T10:22:32.173Z,22.56
2017-09-14T10:24:59.652Z,22.58
2017-09-14T10:27:27.065Z,22.56
2017-09-14T10:29:54.513Z,22.56
2017-09-14T10:32:21.933Z,22.55
2017-09-14T10:34:49.443Z,22.56
2017-09-14T10:37:16.993Z,22.55
2017-09-14T10:39:44.419Z,22.56
2017-09-14T10:42:11.824Z,22.55
2017-09-14T10:44:39.270Z,22.55
2017-09-14T10:47:06.849Z,22.54
2017-09-14T10:49:34.281Z,22.50
2017-09-14T10:52:01.732Z,22.50
2017-09-14T10:54:29.179Z,22.48
2017-09-14T10:56:56.622Z,22.52
2017-09-14T10:59:24.236Z,22.52
2017-09-14T11:01:51.701Z,22.49
2017-09-14T11:04:19.104Z,22.51
2017-09-14T11:06:46.554Z,22.53
2017-09-14T11:09:13.962Z,22.53
2017-09-14T11:11:41.464Z,22.55
2017-09-14T11:14:09.013Z,22.54
2017-09-14T11:16:36.471Z,22.53
2017-09-14T11:19:04.415Z,22.50
2017-09-14T11:21:31.849Z,22.49
2017-09-14T11:23:59.264Z,22.49
2017-09-14T11:26:26.747Z,22.49
2017-09-14T11:28:54.168Z,22.49
2017-09-14T11:31:21.603Z,22.48
2017-09-14T11:33:49.023Z,22.48
2017-09-14T11:36:16.472Z,22.49
2017-09-14T11:38:43.879Z,22.50
2017-09-14T11:41:11.297Z,22.48
2017-09-14T11:43:38.746Z,22.47
2017-09-14T11:46:06.167Z,22.47
2017-09-14T11:48:33.594Z,22.47
2017-09-14T11:51:01.054Z,22.48
2017-09-14T11:53:28.460Z,22.48
2017-09-14T11:55:55.886Z,22.47
2017-09-14T11:58:24.294Z,22.47
2017-09-14T12:00:51.734Z,22.48
2017-09-14T12:03:19.157Z,22.48
2017-09-14T12:05:46.603Z,22.47
2017-09-14T12:08:14.018Z,22.47
2017-09-14T12:10:41.445Z,22.46
2017-09-14T12:13:08.884Z,22.48
2017-09-14T12:15:36.385Z,22.48
2017-09-14T12:18:04.733Z,22.47
2017-09-14T12:20:32.215Z,22.46
2017-09-14T12:22:59.639Z,22.47
2017-09-14T12:25:27.095Z,22.47
2017-09-14T12:27:54.635Z,22.47
2017-09-14T12:30:22.045Z,22.47
2017-09-14T12:32:49.454Z,22.48
2017-09-14T12:35:16.914Z,22.48
2017-09-14T12:37:44.324Z,22.48
2017-09-14T12:40:11.756Z,22.49
2017-09-14T12:42:39.269Z,22.49
2017-09-14T12:45:06.679Z,22.49
2017-09-14T12:47:34.092Z,22.49
2017-09-14T12:50:01.548Z,22.48
2017-09-14T12:52:29.034Z,22.49
2017-09-14T12:54:56.527Z,22.49
2017-09-14T12:57:23.966Z,22.49
2017-09-14T12:59:51.435Z,22.49
2017-09-14T13:02:18.882Z,22.50
2017-09-14T13:04:46.372Z,22.50
2017-09-14T13:07:13.835Z,22.50
2017-09-14T13:09:41.393Z,22.49
2017-09-14T13:12:08.851Z,22.50
2017-09-14T13:14:36.277Z,22.51
2017-09-14T13:17:03.812Z,22.53
2017-09-14T13:19:31.341Z,22.50
2017-09-14T13:21:58.751Z,22.53
2017-09-14T13:24:26.185Z,22.53
2017-09-14T13:26:53.721Z,22.52
2017-09-14T13:29:21.175Z,22.53
2017-09-14T13:31:48.588Z,22.48
2017-09-14T13:34:16.061Z,22.50
2017-09-14T13:36:43.510Z,22.51
2017-09-14T13:39:10.920Z,22.54
2017-09-14T13:41:38.394Z,22.56
2017-09-14T13:44:05.907Z,22.56
2017-09-14T13:46:33.362Z,22.56
2017-09-14T13:49:00.872Z,22.57
2017-09-14T13:51:28.354Z,22.57
2017-09-14T13:53:55.835Z,22.57
2017-09-14T13:56:23.460Z,22.56
2017-09-14T13:58:50.902Z,22.56
2017-09-14T14:01:18.314Z,22.57
2017-09-14T14:03:46.086Z,22.57
2017-09-14T14:06:13.743Z,22.57
2017-09-14T14:08:41.237Z,22.57
2017-09-14T14:11:08.682Z,22.57
2017-09-14T14:13:36.102Z,22.56
2017-09-14T14:16:03.541Z,22.55
2017-09-14T14:18:30.993Z,22.54
2017-09-14T14:20:58.515Z,22.55
2017-09-14T14:23:25.951Z,22.55
2017-09-14T14:25:53.543Z,22.52
2017-09-14T14:28:20.957Z,22.51
2017-09-14T14:30:48.371Z,22.56
2017-09-14T14:33:15.810Z,22.59
2017-09-14T14:35:43.226Z,22.58
2017-09-14T14:38:10.651Z,22.57
2017-09-14T14:40:38.099Z,22.57
2017-09-14T14:43:05.755Z,22.57
2017-09-14T14:45:33.251Z,22.56
2017-09-14T14:48:00.699Z,22.56
2017-09-14T14:50:28.199Z,22.55
2017-09-14T14:52:55.927Z,22.57
2017-09-14T14:55:23.509Z,22.57
2017-09-14T14:57:51.066Z,22.56
2017-09-14T15:00:18.578Z,22.57
2017-09-14T15:02:46.047Z,22.57
2017-09-14T15:05:13.490Z,22.55
2017-09-14T15:07:41.139Z,22.55
2017-09-14T15:10:08.596Z,22.59
2017-09-14T15:12:36.147Z,22.60
2017-09-14T15:15:03.704Z,22.59
2017-09-14T15:17:31.670Z,22.57
2017-09-14T15:19:59.124Z,22.57
2017-09-14T15:22:26.594Z,22.58
2017-09-14T15:24:54.244Z,22.58
2017-09-14T15:27:22.362Z,22.59
2017-09-14T15:29:49.898Z,22.60
2017-09-14T15:32:17.467Z,22.60
2017-09-14T15:34:44.893Z,22.62
2017-09-14T15:37:18.052Z,22.62
2017-09-14T15:39:51.216Z,22.62
2017-09-14T15:42:24.413Z,22.63
2017-09-14T15:44:57.593Z,22.63
2017-09-14T15:47:25.013Z,22.64
2017-09-14T15:49:58.016Z,22.61
2017-09-14T15:52:25.469Z,22.62
2017-09-14T15:54:52.896Z,22.60
2017-09-14T15:57:20.329Z,22.62
2017-09-14T15:59:47.837Z,22.60
2017-09-14T16:02:15.423Z,22.60
2017-09-14T16:04:42.863Z,22.62
2017-09-14T16:07:10.293Z,22.62
2017-09-14T16:09:37.718Z,22.62
2017-09-14T16:12:05.181Z,22.62
2017-09-14T16:14:32.740Z,22.62
2017-09-14T16:17:00.175Z,22.60
2017-09-14T16:19:27.592Z,22.58
2017-09-14T16:21:55.073Z,22.59
2017-09-14T16:24:22.488Z,22.56
2017-09-14T16:26:49.904Z,22.59
2017-09-14T16:29:17.398Z,22.63
2017-09-14T16:31:44.819Z,22.66
2017-09-14T16:34:12.232Z,22.67
2017-09-14T16:36:39.666Z,22.67
2017-09-14T16:39:07.211Z,22.68
2017-09-14T16:41:34.635Z,22.69
2017-09-14T16:44:02.089Z,22.70
2017-09-14T16:46:29.544Z,22.69
2017-09-14T16:48:56.946Z,22.68
2017-09-14T16:51:24.391Z,22.68
2017-09-14T16:53:51.823Z,22.66
2017-09-14T16:56:19.225Z,22.67
2017-09-14T16:58:46.675Z,22.63
2017-09-14T17:01:14.677Z,22.63
2017-09-14T17:03:42.104Z,22.63
2017-09-14T17:06:09.567Z,22.63
2017-09-14T17:08:37.071Z,22.63
2017-09-14T17:11:04.514Z,22.62
2017-09-14T17:13:32.114Z,22.61
2017-09-14T17:15:59.522Z,22.62
2017-09-14T17:18:26.984Z,22.62
2017-09-14T17:20:54.460Z,22.62
2017-09-14T17:23:21.878Z,22.64
2017-09-14T17:25:49.305Z,22.63
2017-09-14T17:28:16.774Z,22.62
2017-09-14T17:30:44.204Z,22.64
2017-09-14T17:33:11.664Z,22.64
2017-09-14T17:35:39.192Z,22.64
2017-09-14T17:38:06.632Z,22.64
2017-09-14T17:40:34.069Z,22.61
2017-09-14T17:43:01.486Z,22.58
2017-09-14T17:45:28.941Z,22.57
2017-09-14T17:47:56.348Z,22.59
2017-09-14T17:50:23.840Z,22.59
2017-09-14T17:52:51.273Z,22.58
2017-09-14T17:55:18.682Z,22.60
2017-09-14T17:57:46.141Z,22.61
2017-09-14T18:00:13.558Z,22.62
2017-09-14T18:02:40.968Z,22.65
2017-09-14T18:05:08.529Z,22.66
2017-09-14T18:07:35.953Z,22.63
2017-09-14T18:10:03.440Z,22.62
2017-09-14T18:12:30.984Z,22.61
2017-09-14T18:14:58.668Z,22.59
2017-09-14T18:17:26.168Z,22.59
2017-09-14T18:19:53.637Z,22.62
2017-09-14T18:22:21.083Z,22.59
2017-09-14T18:24:48.553Z,22.61
2017-09-14T18:27:15.983Z,22.64
2017-09-14T18:29:43.404Z,22.61
2017-09-14T18:32:10.813Z,22.60
2017-09-14T18:34:38.258Z,22.63
2017-09-14T18:37:05.675Z,22.65
2017-09-14T18:39:33.105Z,22.63
2017-09-14T18:42:00.543Z,22.61
2017-09-14T18:44:27.965Z,22.63
2017-09-14T18:46:55.380Z,22.62
2017-09-14T18:49:22.869Z,22.62
2017-09-14T18:51:50.287Z,22.60
2017-09-14T18:54:17.714Z,22.63
2017-09-14T18:56:45.164Z,22.61
2017-09-14T18:59:12.575Z,22.62
2017-09-14T19:01:39.986Z,22.61
2017-09-14T19:04:07.465Z,22.61
2017-09-14T19:06:34.881Z,22.59
2017-09-14T19:09:02.328Z,22.60
2017-09-14T19:11:29.827Z,22.61
2017-09-14T19:13:57.289Z,22.62
2017-09-14T19:16:24.703Z,22.63
2017-09-14T19:18:52.139Z,22.62
2017-09-14T19:21:19.564Z,22.63
2017-09-14T19:23:46.983Z,22.63
2017-09-14T19:26:14.448Z,22.62
2017-09-14T19:28:41.887Z,22.64
2017-09-14T19:31:09.332Z,22.63
2017-09-14T19:33:36.750Z,22.62
2017-09-14T19:36:04.162Z,22.62
2017-09-14T19:38:31.578Z,22.62
2017-09-14T19:40:59.043Z,22.63
2017-09-14T19:43:26.481Z,22.63
2017-09-14T19:45:53.888Z,22.62
2017-09-14T19:48:22.160Z,22.62
2017-09-14T19:50:49.578Z,22.62
2017-09-14T19:53:16.987Z,22.63
2017-09-14T19:55:44.468Z,22.63
2017-09-14T19:58:11.910Z,22.62
2017-09-14T20:00:39.322Z,22.62
2017-09-14T20:03:06.770Z,22.61
2017-09-14T20:05:34.178Z,22.62
2017-09-14T20:08:01.598Z,22.62
2017-09-14T20:10:29.070Z,22.62
2017-09-14T20:12:56.490Z,22.62
2017-09-14T20:15:23.897Z,22.61
2017-09-14T20:17:51.344Z,22.59
2017-09-14T20:20:18.762Z,22.61
2017-09-14T20:22:46.210Z,22.63
2017-09-14T20:25:13.983Z,22.62
2017-09-14T20:27:41.400Z,22.62
2017-09-14T20:30:08.925Z,22.62
2017-09-14T20:32:36.413Z,22.62
2017-09-14T20:35:03.839Z,22.62
2017-09-14T20:37:31.299Z,22.60
2017-09-14T20:39:58.759Z,22.58
2017-09-14T20:42:26.283Z,22.62
2017-09-14T20:44:53.734Z,22.62
2017-09-14T20:47:21.181Z,22.61
2017-09-14T20:49:48.605Z,22.60
2017-09-14T20:52:16.019Z,22.62
2017-09-14T20:54:43.549Z,22.62
2017-09-14T20:57:10.976Z,22.62
2017-09-14T20:59:38.400Z,22.62
2017-09-14T21:02:05.847Z,22.62
2017-09-14T21:04:33.262Z,22.61
2017-09-14T21:07:00.662Z,22.62
2017-09-14T21:09:28.092Z,22.61
2017-09-14T21:11:55.510Z,22.61
2017-09-14T21:14:22.929Z,22.61
2017-09-14T21:16:50.361Z,22.59
2017-09-14T21:19:17.774Z,22.60
2017-09-14T21:21:45.183Z,22.59
2017-09-14T21:24:12.641Z,22.60
2017-09-14T21:26:40.054Z,22.60
2017-09-14T21:29:07.523Z,22.58
2017-09-14T21:31:35.054Z,22.57
2017-09-14T21:34:02.488Z,22.58
2017-09-14T21:36:29.905Z,22.58
2017-09-14T21:38:57.356Z,22.57
2017-09-14T21:41:24.775Z,22.58
2017-09-14T21:43:52.199Z,22.59
2017-09-14T21:46:19.705Z,22.58
2017-09-14T21:48:47.115Z,22.58
2017-09-14T21:51:14.527Z,22.58
2017-09-14T21:53:41.957Z,22.57
2017-09-14T21:56:09.370Z,22.57
2017-09-14T21:58:36.887Z,22.58
2017-09-14T22:01:04.330Z,22.58
2017-09-14T22:03:31.751Z,22.57
2017-09-14T22:05:59.175Z,22.57
2017-09-14T22:08:26.621Z,22.57
2017-09-14T22:10:54.060Z,22.57
2017-09-14T22:13:21.476Z,22.57
2017-09-14T22:15:48.924Z,22.58
2017-09-14T22:18:16.324Z,22.58
2017-09-14T22:20:43.726Z,22.57
2017-09-14T22:23:11.168Z,22.57
2017-09-14T22:25:38.588Z,22.57
2017-09-14T22:28:06.118Z,22.56
2017-09-14T22:30:33.632Z,22.57
2017-09-14T22:33:01.043Z,22.57
2017-09-14T22:35:28.577Z,22.57
2017-09-14T22:37:56.013Z,22.57
2017-09-14T22:40:23.421Z,22.56
2017-09-14T22:42:50.831Z,22.57
2017-09-14T22:45:18.287Z,22.56
2017-09-14T22:47:45.693Z,22.57
2017-09-14T22:50:13.115Z,22.56
2017-09-14T22:52:40.625Z,22.57
2017-09-14T22:55:08.039Z,22.56
2017-09-14T22:57:35.456Z,22.57
2017-09-14T23:00:02.886Z,22.55
2017-09-14T23:02:30.287Z,22.57
2017-09-14T23:04:57.689Z,22.57
2017-09-14T23:07:25.160Z,22.58
2017-09-14T23:09:52.576Z,22.58
2017-09-14T23:12:20.000Z,22.57
2017-09-14T23:14:47.434Z,22.57
2017-09-14T23:17:14.836Z,22.57
2017-09-14T23:19:42.297Z,22.57
2017-09-14T23:22:10.038Z,22.56
2017-09-14T23:24:37.524Z,22.57
2017-09-14T23:27:05.000Z,22.56
2017-09-14T23:29:32.500Z,22.57
2017-09-14T23:31:59.988Z,22.57
2017-09-14T23:34:27.471Z,22.57
2017-09-14T23:36:54.977Z,22.57
2017-09-14T23:39:22.467Z,22.56
2017-09-14T23:41:49.954Z,22.57
2017-09-14T23:44:17.445Z,22.57
2017-09-14T23:46:44.923Z,22.57
2017-09-14T23:49:12.393Z,22.58
2017-09-14T23:51:39.901Z,22.56
2017-09-14T23:54:07.395Z,22.57
2017-09-14T23:56:34.903Z,22.56
2017-09-14T23:59:02.414Z,22.56
